TAX601 WSSS-VTSP
Flight info
| Callsign | TAX601 |
|---|---|
| Flight time | N/A |
| Altitude | 38000 |
| Route | AROSO3A AROSO Y513 KALIL Y501 RINBA Y502 DUBAX R325 URGAD URGAD1D |
| Aircraft | A333/H-SDE3GHIJ2J3J5M1RVWXYZ/LB2D1 |
Departure
| Time | N/A |
|---|---|
| Airport | Singapore Changi Airport (WSSS) |
Arrival
| Time | 2026-04-28 15:09 |
|---|---|
| Airport | Phuket International Airport (VTSP) |
| Time | Latitude | Longitude | Altitude | Speed | Heading |
|---|---|---|---|---|---|
| 2026-04-28 14:17 | 4.91641 | 100.94621 | 37915 ft | 469 kts | 337° |
| 2026-04-28 14:17 | 4.97573 | 100.92061 | 37920 ft | 466 kts | 337° |
| 2026-04-28 14:18 | 5.03533 | 100.89488 | 37919 ft | 466 kts | 337° |
| 2026-04-28 14:18 | 5.09490 | 100.86913 | 37922 ft | 466 kts | 337° |
| 2026-04-28 14:19 | 5.15452 | 100.84336 | 37913 ft | 467 kts | 337° |
| 2026-04-28 14:19 | 5.21383 | 100.81772 | 37913 ft | 467 kts | 336° |
| 2026-04-28 14:20 | 5.27346 | 100.79194 | 37916 ft | 466 kts | 336° |
| 2026-04-28 14:20 | 5.33300 | 100.76620 | 37917 ft | 466 kts | 336° |
| 2026-04-28 14:21 | 5.39102 | 100.73808 | 37908 ft | 466 kts | 332° |
| 2026-04-28 14:21 | 5.44782 | 100.70662 | 37897 ft | 466 kts | 330° |
| 2026-04-28 14:22 | 5.50426 | 100.67462 | 37896 ft | 466 kts | 330° |
| 2026-04-28 14:22 | 5.56076 | 100.64252 | 37886 ft | 466 kts | 330° |
| 2026-04-28 14:23 | 5.61690 | 100.61072 | 37889 ft | 466 kts | 330° |
| 2026-04-28 14:23 | 5.67335 | 100.57879 | 37886 ft | 465 kts | 330° |
| 2026-04-28 14:24 | 5.72976 | 100.54688 | 37886 ft | 465 kts | 330° |
| 2026-04-28 14:24 | 5.78596 | 100.51502 | 37887 ft | 464 kts | 330° |
| 2026-04-28 14:25 | 5.84123 | 100.48234 | 37895 ft | 464 kts | 329° |
| 2026-04-28 14:25 | 5.89651 | 100.44895 | 37892 ft | 464 kts | 329° |
| 2026-04-28 14:26 | 5.95186 | 100.41554 | 37887 ft | 464 kts | 329° |
| 2026-04-28 14:26 | 6.00727 | 100.38222 | 37888 ft | 464 kts | 329° |
| 2026-04-28 14:27 | 6.06232 | 100.34916 | 37884 ft | 464 kts | 329° |
| 2026-04-28 14:27 | 6.08996 | 100.33256 | 37651 ft | 463 kts | 329° |
| 2026-04-28 14:27 | 6.11769 | 100.31591 | 37000 ft | 464 kts | 329° |
| 2026-04-28 14:28 | 6.14544 | 100.29925 | 36447 ft | 464 kts | 329° |
| 2026-04-28 14:28 | 6.17305 | 100.28267 | 35967 ft | 461 kts | 329° |
| 2026-04-28 14:28 | 6.20048 | 100.26619 | 35529 ft | 458 kts | 329° |
| 2026-04-28 14:28 | 6.22742 | 100.25000 | 35069 ft | 456 kts | 329° |
| 2026-04-28 14:29 | 6.25451 | 100.23372 | 34640 ft | 453 kts | 329° |
| 2026-04-28 14:29 | 6.28143 | 100.21754 | 34192 ft | 450 kts | 329° |
| 2026-04-28 14:29 | 6.30829 | 100.20139 | 33772 ft | 447 kts | 329° |
| 2026-04-28 14:29 | 6.33485 | 100.18542 | 33318 ft | 444 kts | 329° |
| 2026-04-28 14:30 | 6.36121 | 100.16956 | 32861 ft | 440 kts | 329° |
| 2026-04-28 14:30 | 6.38742 | 100.15380 | 32454 ft | 436 kts | 329° |
| 2026-04-28 14:30 | 6.41326 | 100.13807 | 32036 ft | 433 kts | 327° |
| 2026-04-28 14:30 | 6.43682 | 100.11938 | 31582 ft | 431 kts | 317° |
| 2026-04-28 14:31 | 6.45784 | 100.09849 | 31160 ft | 429 kts | 315° |
| 2026-04-28 14:31 | 6.47836 | 100.07681 | 30728 ft | 427 kts | 314° |
| 2026-04-28 14:31 | 6.49837 | 100.05489 | 30310 ft | 425 kts | 313° |
| 2026-04-28 14:31 | 6.51812 | 100.03290 | 29890 ft | 422 kts | 313° |
| 2026-04-28 14:32 | 6.53767 | 100.01102 | 29408 ft | 420 kts | 313° |
| 2026-04-28 14:32 | 6.55714 | 99.98928 | 28932 ft | 417 kts | 313° |
| 2026-04-28 14:32 | 6.57631 | 99.96795 | 28485 ft | 414 kts | 314° |
| 2026-04-28 14:32 | 6.59560 | 99.94655 | 28072 ft | 411 kts | 314° |
| 2026-04-28 14:33 | 6.61469 | 99.92542 | 27915 ft | 405 kts | 314° |
| 2026-04-28 14:33 | 6.63392 | 99.90418 | 27879 ft | 419 kts | 314° |
| 2026-04-28 14:33 | 6.65392 | 99.88214 | 27879 ft | 432 kts | 314° |
| 2026-04-28 14:33 | 6.67429 | 99.85967 | 27882 ft | 437 kts | 314° |
| 2026-04-28 14:34 | 6.71534 | 99.81431 | 27884 ft | 439 kts | 314° |
| 2026-04-28 14:34 | 6.73589 | 99.79159 | 27883 ft | 439 kts | 314° |
| 2026-04-28 14:34 | 6.75616 | 99.76917 | 27883 ft | 439 kts | 314° |
| 2026-04-28 14:35 | 6.77670 | 99.74645 | 27881 ft | 439 kts | 314° |
| 2026-04-28 14:35 | 6.79726 | 99.72371 | 27882 ft | 439 kts | 314° |
| 2026-04-28 14:35 | 6.81784 | 99.70095 | 27882 ft | 439 kts | 314° |
| 2026-04-28 14:35 | 6.83840 | 99.67821 | 27899 ft | 439 kts | 314° |
| 2026-04-28 14:36 | 6.85896 | 99.65548 | 27882 ft | 439 kts | 314° |
| 2026-04-28 14:36 | 6.87950 | 99.63276 | 27881 ft | 439 kts | 314° |
| 2026-04-28 14:36 | 6.89977 | 99.61032 | 27879 ft | 439 kts | 314° |
| 2026-04-28 14:36 | 6.92031 | 99.58759 | 27879 ft | 439 kts | 314° |
| 2026-04-28 14:37 | 6.94087 | 99.56484 | 27879 ft | 439 kts | 314° |
| 2026-04-28 14:37 | 6.96141 | 99.54210 | 27879 ft | 439 kts | 314° |
| 2026-04-28 14:37 | 6.98195 | 99.51937 | 27879 ft | 439 kts | 314° |
| 2026-04-28 14:37 | 7.00252 | 99.49665 | 27896 ft | 439 kts | 314° |
| 2026-04-28 14:38 | 7.02333 | 99.47409 | 27880 ft | 439 kts | 315° |
| 2026-04-28 14:38 | 7.04425 | 99.45173 | 27878 ft | 439 kts | 315° |
| 2026-04-28 14:38 | 7.06526 | 99.42942 | 27877 ft | 440 kts | 315° |
| 2026-04-28 14:38 | 7.08605 | 99.40737 | 27878 ft | 440 kts | 315° |
| 2026-04-28 14:39 | 7.10710 | 99.38503 | 27881 ft | 440 kts | 315° |
| 2026-04-28 14:39 | 7.12815 | 99.36266 | 27882 ft | 440 kts | 315° |
| 2026-04-28 14:39 | 7.14917 | 99.34028 | 27883 ft | 440 kts | 315° |
| 2026-04-28 14:39 | 7.17017 | 99.31789 | 27882 ft | 440 kts | 315° |
| 2026-04-28 14:40 | 7.19118 | 99.29548 | 27881 ft | 440 kts | 315° |
| 2026-04-28 14:40 | 7.20506 | 99.28067 | 27881 ft | 440 kts | 315° |
| 2026-04-28 14:40 | 7.23317 | 99.25068 | 27899 ft | 440 kts | 315° |
| 2026-04-28 14:40 | 7.25385 | 99.22860 | 27887 ft | 440 kts | 315° |
| 2026-04-28 14:41 | 7.27488 | 99.20615 | 27886 ft | 440 kts | 315° |
| 2026-04-28 14:41 | 7.29585 | 99.18377 | 27887 ft | 440 kts | 315° |
| 2026-04-28 14:41 | 7.31684 | 99.16135 | 27904 ft | 440 kts | 315° |
| 2026-04-28 14:41 | 7.33785 | 99.13892 | 27886 ft | 440 kts | 315° |
| 2026-04-28 14:42 | 7.35884 | 99.11650 | 27886 ft | 440 kts | 315° |
| 2026-04-28 14:42 | 7.37986 | 99.09405 | 27902 ft | 440 kts | 315° |
| 2026-04-28 14:42 | 7.40055 | 99.07195 | 27889 ft | 440 kts | 315° |
| 2026-04-28 14:42 | 7.42156 | 99.04950 | 27889 ft | 441 kts | 315° |
| 2026-04-28 14:43 | 7.44260 | 99.02702 | 27890 ft | 441 kts | 315° |
| 2026-04-28 14:43 | 7.46363 | 99.00454 | 27905 ft | 441 kts | 315° |
| 2026-04-28 14:43 | 7.48466 | 98.98207 | 27889 ft | 441 kts | 315° |
| 2026-04-28 14:43 | 7.50568 | 98.95960 | 27892 ft | 441 kts | 315° |
| 2026-04-28 14:44 | 7.52670 | 98.93711 | 27902 ft | 440 kts | 315° |
| 2026-04-28 14:44 | 7.54769 | 98.91467 | 27885 ft | 440 kts | 315° |
| 2026-04-28 14:44 | 7.56870 | 98.89220 | 27886 ft | 440 kts | 315° |
| 2026-04-28 14:44 | 7.58939 | 98.87007 | 27885 ft | 440 kts | 315° |
| 2026-04-28 14:45 | 7.61036 | 98.84763 | 27885 ft | 440 kts | 315° |
| 2026-04-28 14:45 | 7.63131 | 98.82522 | 27885 ft | 440 kts | 315° |
| 2026-04-28 14:45 | 7.65228 | 98.80277 | 27886 ft | 440 kts | 315° |
| 2026-04-28 14:45 | 7.67326 | 98.78032 | 27882 ft | 440 kts | 315° |
| 2026-04-28 14:46 | 7.69420 | 98.75790 | 27881 ft | 440 kts | 315° |
| 2026-04-28 14:46 | 7.71516 | 98.73545 | 27896 ft | 440 kts | 315° |
| 2026-04-28 14:46 | 7.73606 | 98.71292 | 27883 ft | 440 kts | 315° |
| 2026-04-28 14:46 | 7.75695 | 98.69036 | 27885 ft | 440 kts | 314° |
| 2026-04-28 14:47 | 7.77883 | 98.66956 | 27885 ft | 437 kts | 326° |
| 2026-04-28 14:47 | 7.80411 | 98.65261 | 27833 ft | 436 kts | 328° |
| 2026-04-28 14:47 | 7.82935 | 98.63605 | 27480 ft | 430 kts | 329° |
| 2026-04-28 14:47 | 7.85415 | 98.61934 | 26952 ft | 429 kts | 323° |
| 2026-04-28 14:48 | 7.87458 | 98.59752 | 26427 ft | 430 kts | 306° |
| 2026-04-28 14:48 | 7.88763 | 98.57046 | 25912 ft | 432 kts | 288° |
| 2026-04-28 14:48 | 7.89208 | 98.54061 | 25406 ft | 433 kts | 270° |
| 2026-04-28 14:48 | 7.88753 | 98.51072 | 24906 ft | 432 kts | 252° |
| 2026-04-28 14:49 | 7.87565 | 98.48331 | 24415 ft | 431 kts | 243° |
| 2026-04-28 14:49 | 7.86147 | 98.45675 | 23945 ft | 429 kts | 242° |
| 2026-04-28 14:49 | 7.84624 | 98.43099 | 23472 ft | 427 kts | 233° |
| 2026-04-28 14:49 | 7.82525 | 98.41015 | 22911 ft | 424 kts | 214° |
| 2026-04-28 14:50 | 7.79918 | 98.39680 | 22351 ft | 419 kts | 196° |
| 2026-04-28 14:50 | 7.77074 | 98.39223 | 21805 ft | 412 kts | 178° |
| 2026-04-28 14:50 | 7.74310 | 98.39660 | 21277 ft | 405 kts | 159° |
| 2026-04-28 14:50 | 7.71839 | 98.40942 | 20745 ft | 397 kts | 141° |
| 2026-04-28 14:51 | 7.69942 | 98.42922 | 20229 ft | 390 kts | 122° |
| 2026-04-28 14:51 | 7.68811 | 98.45368 | 19718 ft | 384 kts | 104° |
| 2026-04-28 14:51 | 7.68265 | 98.47989 | 19208 ft | 380 kts | 99° |
| 2026-04-28 14:51 | 7.67839 | 98.50606 | 18722 ft | 374 kts | 98° |
| 2026-04-28 14:52 | 7.67440 | 98.53147 | 18241 ft | 359 kts | 98° |
| 2026-04-28 14:52 | 7.67065 | 98.55580 | 17707 ft | 343 kts | 98° |
| 2026-04-28 14:52 | 7.66711 | 98.57880 | 17169 ft | 330 kts | 98° |
| 2026-04-28 14:52 | 7.66364 | 98.60128 | 16642 ft | 318 kts | 98° |
| 2026-04-28 14:53 | 7.66029 | 98.62294 | 16114 ft | 308 kts | 98° |
| 2026-04-28 14:53 | 7.65703 | 98.64401 | 15595 ft | 300 kts | 98° |
| 2026-04-28 14:53 | 7.65386 | 98.66448 | 15084 ft | 292 kts | 98° |
| 2026-04-28 14:53 | 7.65076 | 98.68451 | 14580 ft | 287 kts | 98° |
| 2026-04-28 14:54 | 7.64771 | 98.70424 | 14086 ft | 283 kts | 98° |
| 2026-04-28 14:54 | 7.64472 | 98.72351 | 13591 ft | 282 kts | 98° |
| 2026-04-28 14:54 | 7.64170 | 98.74295 | 13036 ft | 279 kts | 98° |
| 2026-04-28 14:54 | 7.63870 | 98.76222 | 12492 ft | 277 kts | 97° |
| 2026-04-28 14:55 | 7.63943 | 98.78139 | 11951 ft | 274 kts | 74° |
| 2026-04-28 14:55 | 7.64852 | 98.79797 | 11455 ft | 273 kts | 47° |
| 2026-04-28 14:55 | 7.66419 | 98.80850 | 11021 ft | 276 kts | 20° |
| 2026-04-28 14:55 | 7.68350 | 98.81083 | 10573 ft | 286 kts | 354° |
| 2026-04-28 14:56 | 7.70217 | 98.80440 | 10136 ft | 292 kts | 329° |
| 2026-04-28 14:56 | 7.71677 | 98.79016 | 9703 ft | 297 kts | 303° |
| 2026-04-28 14:56 | 7.72417 | 98.77074 | 9213 ft | 300 kts | 278° |
| 2026-04-28 14:56 | 7.72355 | 98.74975 | 8750 ft | 302 kts | 261° |
| 2026-04-28 14:57 | 7.71958 | 98.72894 | 8294 ft | 302 kts | 258° |
| 2026-04-28 14:57 | 7.71667 | 98.71529 | 8112 ft | 298 kts | 257° |
| 2026-04-28 14:57 | 7.71133 | 98.68854 | 8027 ft | 286 kts | 264° |
| 2026-04-28 14:57 | 7.71193 | 98.66857 | 8024 ft | 285 kts | 282° |
| 2026-04-28 14:58 | 7.71948 | 98.65031 | 8022 ft | 283 kts | 307° |
| 2026-04-28 14:58 | 7.73376 | 98.63751 | 8021 ft | 279 kts | 335° |
| 2026-04-28 14:58 | 7.75195 | 98.63115 | 8022 ft | 277 kts | 348° |
| 2026-04-28 14:58 | 7.77074 | 98.62677 | 8020 ft | 277 kts | 349° |
| 2026-04-28 14:59 | 7.78962 | 98.62267 | 8016 ft | 278 kts | 349° |
| 2026-04-28 14:59 | 7.80856 | 98.61852 | 7708 ft | 280 kts | 349° |
| 2026-04-28 14:59 | 7.82723 | 98.61436 | 7474 ft | 268 kts | 349° |
| 2026-04-28 14:59 | 7.84495 | 98.61037 | 7171 ft | 256 kts | 349° |
| 2026-04-28 15:00 | 7.86201 | 98.60654 | 6768 ft | 253 kts | 349° |
| 2026-04-28 15:00 | 7.87907 | 98.60269 | 6338 ft | 250 kts | 349° |
| 2026-04-28 15:00 | 7.89604 | 98.59885 | 5845 ft | 249 kts | 349° |
| 2026-04-28 15:00 | 7.91289 | 98.59504 | 5395 ft | 248 kts | 350° |
| 2026-04-28 15:01 | 7.92970 | 98.59121 | 4931 ft | 247 kts | 349° |
| 2026-04-28 15:01 | 7.94642 | 98.58739 | 4496 ft | 245 kts | 349° |
| 2026-04-28 15:01 | 7.96291 | 98.58362 | 4139 ft | 242 kts | 349° |
| 2026-04-28 15:01 | 7.97935 | 98.57985 | 3974 ft | 243 kts | 349° |
| 2026-04-28 15:02 | 7.99565 | 98.57617 | 3901 ft | 243 kts | 349° |
| 2026-04-28 15:02 | 8.01211 | 98.57243 | 3819 ft | 242 kts | 349° |
| 2026-04-28 15:02 | 8.02853 | 98.56870 | 3753 ft | 242 kts | 351° |
| 2026-04-28 15:02 | 8.04515 | 98.56616 | 3658 ft | 241 kts | 356° |
| 2026-04-28 15:03 | 8.06185 | 98.56444 | 3618 ft | 241 kts | 357° |
| 2026-04-28 15:03 | 8.07856 | 98.56289 | 3551 ft | 241 kts | 357° |
| 2026-04-28 15:03 | 8.09515 | 98.56137 | 3464 ft | 236 kts | 358° |
| 2026-04-28 15:03 | 8.11089 | 98.55949 | 3385 ft | 224 kts | 349° |
| 2026-04-28 15:04 | 8.12458 | 98.55269 | 3136 ft | 221 kts | 318° |
| 2026-04-28 15:04 | 8.13168 | 98.53915 | 2726 ft | 222 kts | 277° |
| 2026-04-28 15:04 | 8.13096 | 98.52428 | 2548 ft | 207 kts | 260° |
| 2026-04-28 15:04 | 8.12858 | 98.51032 | 2523 ft | 199 kts | 260° |
| 2026-04-28 15:05 | 8.12692 | 98.49656 | 2512 ft | 197 kts | 263° |
| 2026-04-28 15:05 | 8.12563 | 98.48285 | 2516 ft | 196 kts | 264° |
| 2026-04-28 15:05 | 8.12460 | 98.46958 | 2498 ft | 185 kts | 265° |
| 2026-04-28 15:05 | 8.12375 | 98.45676 | 2258 ft | 184 kts | 265° |
| 2026-04-28 15:06 | 8.12288 | 98.44389 | 1971 ft | 186 kts | 265° |
| 2026-04-28 15:06 | 8.12200 | 98.43128 | 1917 ft | 174 kts | 266° |
| 2026-04-28 15:06 | 8.12118 | 98.41966 | 1859 ft | 161 kts | 266° |
| 2026-04-28 15:06 | 8.12041 | 98.40859 | 1655 ft | 157 kts | 266° |
| 2026-04-28 15:07 | 8.11965 | 98.39781 | 1428 ft | 152 kts | 268° |
| 2026-04-28 15:07 | 8.11891 | 98.38706 | 1225 ft | 154 kts | 265° |
| 2026-04-28 15:07 | 8.11816 | 98.37624 | 1010 ft | 153 kts | 268° |
| 2026-04-28 15:07 | 8.11745 | 98.36589 | 827 ft | 144 kts | 265° |
| 2026-04-28 15:08 | 8.11676 | 98.35601 | 648 ft | 142 kts | 267° |
| 2026-04-28 15:08 | 8.11612 | 98.34597 | 429 ft | 146 kts | 269° |
| 2026-04-28 15:08 | 8.11504 | 98.33573 | 261 ft | 146 kts | 260° |
| 2026-04-28 15:08 | 8.11404 | 98.32560 | 91 ft | 141 kts | 262° |
| 2026-04-28 15:09 | 8.11328 | 98.31740 | 51 ft | 90 kts | 265° |
| 2026-04-28 15:09 | 8.11287 | 98.31310 | 36 ft | 34 kts | 264° |
| 2026-04-28 15:09 | 8.11267 | 98.31084 | 34 ft | 21 kts | 264° |
| 2026-04-28 15:09 | 8.11260 | 98.31018 | 33 ft | 14 kts | 264° |
| 2026-04-28 15:10 | 8.11243 | 98.30839 | 33 ft | 23 kts | 265° |
| 2026-04-28 15:10 | 8.11229 | 98.30672 | 32 ft | 25 kts | 264° |
| 2026-04-28 15:10 | 8.11163 | 98.30526 | 31 ft | 24 kts | 201° |
| 2026-04-28 15:10 | 8.11060 | 98.30496 | 31 ft | 14 kts | 195° |
| 2026-04-28 15:11 | 8.10954 | 98.30468 | 31 ft | 17 kts | 194° |
| 2026-04-28 15:11 | 8.10835 | 98.30438 | 31 ft | 14 kts | 194° |
| 2026-04-28 15:11 | 8.10762 | 98.30419 | 31 ft | 12 kts | 194° |
| 2026-04-28 15:11 | 8.10673 | 98.30397 | 31 ft | 14 kts | 194° |
| 2026-04-28 15:12 | 8.10630 | 98.30385 | 30 ft | 0 kts | 197° |
| 2026-04-28 15:12 | 8.10629 | 98.30384 | 30 ft | 2 kts | 197° |
| 2026-04-28 15:13 | 8.10596 | 98.30374 | 30 ft | 7 kts | 197° |
| 2026-04-28 15:13 | 8.10546 | 98.30366 | 30 ft | 6 kts | 165° |
| 2026-04-28 15:13 | 8.10529 | 98.30396 | 30 ft | 6 kts | 111° |
| 2026-04-28 15:13 | 8.10518 | 98.30432 | 31 ft | 5 kts | 105° |
| 2026-04-28 15:14 | 8.10515 | 98.30444 | 31 ft | 1 kts | 105° |
| 2026-04-28 15:14 | 8.10515 | 98.30446 | 31 ft | 0 kts | 105° |